Time;durP1;ratioP1;P1;durP2;ratioP2;P2;SDS_P1;SDS_P2;PMS_P1;PMS_P2;Temp;Humidity;BMP_temperature;BMP_pressure;BME280_temperature;BME280_humidity;BME280_pressure;Samples;Min_cycle;Max_cycle;Signal;HPM_P1;HPM_P2
2022/01/08 00:01:02;;;;;;;9.52;4.50;;;;;;;-6.04;64.84;98609.06;5071977;28;20466;-59
2022/01/08 00:03:28;;;;;;;6.82;3.35;;;;;;;-6.12;64.73;98605.63;5071348;28;20433;-60
2022/01/08 00:05:56;;;;;;;5.22;3.13;;;;;;;-6.07;64.71;98606.78;5071872;28;20056;-59
2022/01/08 00:08:24;;;;;;;5.68;2.67;;;;;;;-6.15;65.25;98617.03;5072298;28;20071;-59
2022/01/08 00:10:51;;;;;;;6.88;3.15;;;;;;;-6.08;65.37;98617.28;5070707;28;20037;-59
2022/01/08 00:13:17;;;;;;;7.00;3.50;;;;;;;-6.00;65.00;98627.63;5068440;28;20037;-59
2022/01/08 00:15:43;;;;;;;8.18;4.22;;;;;;;-6.01;65.22;98626.81;5060856;28;20032;-60
2022/01/08 00:18:09;;;;;;;7.75;3.40;;;;;;;-5.92;64.83;98632.81;5072168;28;20446;-60
2022/01/08 00:20:35;;;;;;;7.82;3.75;;;;;;;-5.73;65.06;98642.97;5071026;28;20055;-59
2022/01/08 00:23:02;;;;;;;6.13;3.33;;;;;;;-5.76;65.17;98643.28;5072065;28;20086;-60
2022/01/08 00:25:28;;;;;;;5.50;2.90;;;;;;;-5.61;64.80;98643.53;5053448;28;20310;-59
2022/01/08 00:27:54;;;;;;;8.88;3.03;;;;;;;-5.50;64.60;98660.53;5070629;28;20044;-59
2022/01/08 00:30:20;;;;;;;4.97;2.40;;;;;;;-5.48;64.42;98667.16;5071259;28;20045;-58
2022/01/08 00:32:46;;;;;;;5.47;2.65;;;;;;;-5.61;64.57;98678.88;5070442;28;20048;-59
2022/01/08 00:35:13;;;;;;;4.63;2.92;;;;;;;-5.59;65.24;98680.34;5071450;28;20070;-60
2022/01/08 00:37:39;;;;;;;4.32;2.65;;;;;;;-5.47;65.66;98688.66;5071314;28;20052;-58
2022/01/08 00:40:07;;;;;;;4.43;2.95;;;;;;;-5.45;65.14;98676.38;5061567;28;20459;-60
2022/01/08 00:42:33;;;;;;;7.25;2.80;;;;;;;-5.45;64.74;98680.75;5068505;28;20051;-60
2022/01/08 00:44:59;;;;;;;5.40;3.13;;;;;;;-5.51;64.83;98677.00;5062372;28;20498;-59
2022/01/08 00:47:24;;;;;;;4.20;2.42;;;;;;;-5.53;65.26;98679.75;5065893;28;20099;-60
2022/01/08 00:49:50;;;;;;;3.97;2.33;;;;;;;-5.61;65.20;98681.47;5070136;28;20036;-60
2022/01/08 00:52:16;;;;;;;3.95;2.28;;;;;;;-5.65;64.92;98673.19;5071291;28;20036;-60
2022/01/08 00:54:42;;;;;;;3.55;2.42;;;;;;;-5.65;64.61;98675.75;5071298;28;20038;-58
2022/01/08 00:57:08;;;;;;;3.05;2.45;;;;;;;-5.62;64.69;98680.63;5070976;28;20052;-59
2022/01/08 00:59:33;;;;;;;5.95;2.78;;;;;;;-5.62;64.47;98680.63;5071190;28;20036;-60
2022/01/08 01:02:00;;;;;;;6.20;2.78;;;;;;;-5.66;64.51;98688.84;5069719;28;20052;-59
2022/01/08 01:04:26;;;;;;;3.78;2.42;;;;;;;-5.77;64.62;98690.69;5071015;28;20052;-59
2022/01/08 01:06:52;;;;;;;4.50;2.50;;;;;;;-5.88;64.39;98696.09;5066675;28;20103;-59
2022/01/08 01:09:18;;;;;;;3.22;2.15;;;;;;;-5.99;64.90;98692.00;5051340;28;20421;-61
2022/01/08 01:11:44;;;;;;;10.90;4.88;;;;;;;-6.08;64.80;98700.66;5053119;28;20037;-58
2022/01/08 01:14:10;;;;;;;19.02;6.20;;;;;;;-6.07;63.55;98688.53;5071404;28;20447;-60
2022/01/08 01:16:35;;;;;;;18.20;6.95;;;;;;;-6.10;62.76;98705.13;5068967;28;20039;-60
2022/01/08 01:19:03;;;;;;;9.00;4.55;;;;;;;-6.08;62.40;98702.41;5063449;28;20040;-59
2022/01/08 01:21:29;;;;;;;7.22;2.97;;;;;;;-6.13;61.73;98717.53;5049585;28;20041;-60
2022/01/08 01:23:56;;;;;;;13.63;5.20;;;;;;;-6.09;62.19;98716.25;5068376;28;20059;-62
2022/01/08 01:26:25;;;;;;;8.63;4.82;;;;;;;-6.12;61.37;98712.19;5058562;28;20090;-60
2022/01/08 01:29:27;;;;;;;7.82;4.35;;;;;;;-6.11;60.54;98711.25;5064932;28;20093;-60
2022/01/08 01:48:13;;;;;;;5.05;2.45;;;;;;;-5.74;59.43;98751.53;5055440;28;20457;-59
2022/01/08 01:50:39;;;;;;;6.60;2.97;;;;;;;-5.74;59.28;98752.34;5071087;28;20060;-60
2022/01/08 01:53:05;;;;;;;5.88;2.65;;;;;;;-5.79;59.04;98761.53;5073242;28;20041;-60
2022/01/08 01:55:31;;;;;;;5.22;2.97;;;;;;;-5.72;59.16;98765.13;5056774;28;20048;-60
2022/01/08 01:57:57;;;;;;;3.53;2.50;;;;;;;-5.65;59.14;98767.91;5054728;28;20052;-59
2022/01/08 02:00:23;;;;;;;2.90;2.25;;;;;;;-5.61;59.11;98780.38;5073817;28;20043;-58
2022/01/08 02:02:49;;;;;;;4.20;2.42;;;;;;;-5.70;59.08;98770.94;5073691;28;20401;-59
2022/01/08 02:05:15;;;;;;;4.20;2.55;;;;;;;-5.51;58.86;98790.63;5072713;28;20079;-60
2022/01/08 02:07:41;;;;;;;2.78;2.25;;;;;;;-5.43;58.94;98792.47;5074360;28;20062;-59
2022/01/08 02:10:07;;;;;;;2.53;2.17;;;;;;;-5.51;58.71;98788.84;5072725;28;20048;-60
2022/01/08 02:12:33;;;;;;;2.47;2.20;;;;;;;-5.38;59.17;98792.81;5069563;28;20036;-59
2022/01/08 02:14:59;;;;;;;3.20;2.30;;;;;;;-5.26;59.00;98797.59;5066319;28;20032;-58
2022/01/08 02:17:25;;;;;;;4.03;2.28;;;;;;;-5.28;58.98;98803.88;5073906;28;20047;-60
2022/01/08 02:19:52;;;;;;;2.58;1.85;;;;;;;-5.11;59.98;98810.78;5074034;28;20048;-61
2022/01/08 02:22:20;;;;;;;3.10;2.10;;;;;;;-5.07;59.56;98821.63;5061392;28;20387;-60
2022/01/08 02:24:47;;;;;;;4.28;2.28;;;;;;;-5.00;59.73;98822.63;5061512;28;20150;-60
2022/01/08 02:27:13;;;;;;;5.13;2.10;;;;;;;-5.00;59.57;98816.66;5072526;28;20045;-59
2022/01/08 02:29:39;;;;;;;4.55;2.00;;;;;;;-5.02;60.06;98822.81;5073550;28;20574;-60
2022/01/08 02:32:15;;;;;;;4.95;2.10;;;;;;;-4.92;60.17;98825.28;5073570;28;20085;-59
2022/01/08 02:34:43;;;;;;;3.35;2.60;;;;;;;-5.12;60.20;98839.34;5073617;28;20060;-60
2022/01/08 02:37:09;;;;;;;2.97;2.28;;;;;;;-5.25;61.32;98837.97;5072604;28;20516;-60
2022/01/08 02:39:42;;;;;;;4.70;2.40;;;;;;;-5.10;61.83;98842.59;5071572;28;20057;-60
2022/01/08 02:42:11;;;;;;;5.65;2.60;;;;;;;-5.03;60.56;98852.22;5053836;28;20033;-59
2022/01/08 02:44:37;;;;;;;3.00;2.40;;;;;;;-4.91;61.61;98851.94;5053173;28;20052;-59
2022/01/08 02:47:03;;;;;;;2.83;2.13;;;;;;;-4.84;61.68;98843.44;5073428;28;20044;-59
2022/01/08 02:49:35;;;;;;;2.97;2.20;;;;;;;-4.75;60.96;98859.81;5071297;28;20045;-61
2022/01/08 02:52:03;;;;;;;3.35;2.30;;;;;;;-4.67;60.96;98856.47;5072689;28;20032;-59
2022/01/08 02:54:29;;;;;;;2.97;2.20;;;;;;;-4.74;61.06;98852.84;5073632;28;20048;-58
2022/01/08 02:56:54;;;;;;;2.95;2.13;;;;;;;-4.71;61.16;98857.72;5073326;28;20044;-58
2022/01/08 02:59:20;;;;;;;5.72;2.25;;;;;;;-4.64;61.07;98869.09;5062479;28;20041;-59
2022/01/08 03:01:46;;;;;;;3.58;2.35;;;;;;;-4.62;61.25;98875.75;5067525;28;20488;-59
2022/01/08 03:04:12;;;;;;;3.47;2.40;;;;;;;-4.56;60.36;98871.72;5072843;28;20127;-60
2022/01/08 03:06:39;;;;;;;3.40;1.90;;;;;;;-4.60;60.85;98885.91;5072657;28;20079;-58
2022/01/08 03:09:05;;;;;;;3.42;2.17;;;;;;;-4.63;60.42;98881.88;5062996;28;20087;-59
2022/01/08 03:11:31;;;;;;;4.35;2.45;;;;;;;-4.62;61.35;98883.50;5060949;28;20037;-59
2022/01/08 03:13:58;;;;;;;2.58;2.00;;;;;;;-4.64;61.14;98880.25;5073036;28;20413;-59
2022/01/08 03:16:24;;;;;;;4.57;2.58;;;;;;;-4.61;61.37;98886.91;5072433;28;20038;-59
2022/01/08 03:18:50;;;;;;;5.70;3.20;;;;;;;-4.58;60.36;98886.59;5072838;28;20049;-60
2022/01/08 03:21:20;;;;;;;6.65;3.17;;;;;;;-4.59;60.84;98896.13;5071670;28;20063;-60
2022/01/08 03:23:56;;;;;;;5.03;2.95;;;;;;;-4.62;61.09;98880.09;5073288;28;20040;-59
2022/01/08 03:26:24;;;;;;;9.27;3.72;;;;;;;-4.52;61.04;98892.94;5071199;28;20040;-59
2022/01/08 03:28:50;;;;;;;5.85;2.63;;;;;;;-4.51;61.31;98907.47;5053411;28;20512;-58
2022/01/08 03:31:16;;;;;;;5.82;3.22;;;;;;;-4.58;60.38;98902.91;5054145;28;20056;-58
2022/01/08 03:33:42;;;;;;;3.83;2.60;;;;;;;-4.58;61.65;98909.88;5073127;28;20072;-60
2022/01/08 03:36:08;;;;;;;5.35;2.75;;;;;;;-4.56;61.33;98913.09;5063563;28;20061;-59
2022/01/08 03:38:34;;;;;;;4.75;2.63;;;;;;;-4.60;61.74;98917.75;5072214;28;20138;-59
2022/01/08 03:41:01;;;;;;;3.55;2.08;;;;;;;-4.58;62.78;98925.38;5071118;28;20072;-60
2022/01/08 03:43:27;;;;;;;5.32;2.83;;;;;;;-4.54;61.85;98923.31;5072682;28;20087;-59
2022/01/08 03:45:53;;;;;;;3.40;2.50;;;;;;;-4.54;61.78;98923.31;5064018;28;20056;-59
2022/01/08 03:50:45;;;;;;;4.43;2.45;;;;;;;-4.47;62.11;98932.06;5051308;28;20452;-59
2022/01/08 03:53:12;;;;;;;5.00;2.38;;;;;;;-4.49;62.27;98921.09;5063970;28;20040;-58
2022/01/08 03:55:39;;;;;;;6.00;3.08;;;;;;;-4.53;62.47;98928.31;5055604;28;20037;-58
2022/01/08 03:58:05;;;;;;;5.38;3.03;;;;;;;-4.57;62.32;98938.16;5060485;28;20074;-60
2022/01/08 04:00:32;;;;;;;6.97;3.97;;;;;;;-4.51;62.92;98939.31;5072310;28;20044;-58
2022/01/08 04:02:57;;;;;;;5.88;3.28;;;;;;;-4.51;63.10;98938.53;5071887;28;20044;-59
2022/01/08 04:05:23;;;;;;;4.75;2.90;;;;;;;-4.67;63.93;98937.44;5036795;28;20566;-60
2022/01/08 04:07:49;;;;;;;4.28;2.78;;;;;;;-4.65;63.29;98934.69;5072041;28;20040;-59
2022/01/08 04:10:15;;;;;;;6.20;3.00;;;;;;;-4.67;63.49;98952.16;5059834;28;20072;-60
2022/01/08 04:12:43;;;;;;;5.18;2.85;;;;;;;-4.69;63.78;98952.31;5052953;28;20052;-60
2022/01/08 04:15:31;;;;;;;3.92;2.47;;;;;;;-4.75;63.32;98944.34;5071292;28;20041;-58
2022/01/08 04:17:55;;;;;;;2.83;2.28;;;;;;;-4.70;63.76;98948.09;5067380;28;20052;-58
2022/01/08 04:20:22;;;;;;;5.95;2.92;;;;;;;-4.78;64.38;98954.97;5051643;28;20498;-58
2022/01/08 04:22:50;;;;;;;3.85;2.13;;;;;;;-4.87;64.61;98957.50;5052158;28;20047;-61
2022/01/08 04:25:17;;;;;;;5.03;2.83;;;;;;;-4.87;64.27;98954.09;5071807;28;20063;-59
2022/01/08 04:27:43;;;;;;;3.70;2.58;;;;;;;-4.95;64.55;98952.25;5071948;28;20143;-59
2022/01/08 04:30:10;;;;;;;2.85;2.00;;;;;;;-4.86;65.09;98958.28;5070453;28;20560;-60
2022/01/08 04:32:36;;;;;;;2.40;1.90;;;;;;;-4.86;64.01;98959.09;5057351;28;20055;-59
2022/01/08 04:35:02;;;;;;;2.78;1.90;;;;;;;-4.80;63.59;98963.69;5061911;28;20139;-58
2022/01/08 04:37:29;;;;;;;3.05;2.20;;;;;;;-4.76;63.57;98966.81;5051558;28;20053;-59
2022/01/08 04:39:54;;;;;;;3.55;2.20;;;;;;;-4.87;62.76;98967.84;5064065;28;20446;-58
2022/01/08 04:42:20;;;;;;;3.08;1.77;;;;;;;-4.99;63.27;98970.81;5070754;28;20040;-58
2022/01/08 04:44:46;;;;;;;2.25;1.75;;;;;;;-5.03;62.59;98973.69;5071500;28;20056;-59
2022/01/08 04:47:12;;;;;;;2.38;1.73;;;;;;;-5.03;62.83;98985.78;5071487;28;20037;-58
2022/01/08 04:49:38;;;;;;;2.78;1.67;;;;;;;-4.84;62.69;98995.97;5020228;28;20047;-60
2022/01/08 04:52:04;;;;;;;1.77;1.40;;;;;;;-4.82;61.67;98990.66;5071513;28;20041;-60
2022/01/08 04:54:30;;;;;;;3.80;1.85;;;;;;;-4.84;61.80;98992.59;5071364;28;20083;-60
2022/01/08 04:56:56;;;;;;;9.85;2.65;;;;;;;-4.82;62.40;99001.81;5071207;28;20483;-59
2022/01/08 04:59:21;;;;;;;1.67;1.55;;;;;;;-4.90;62.23;99003.53;5071222;28;20037;-58
2022/01/08 05:01:47;;;;;;;2.55;1.90;;;;;;;-4.88;62.95;99009.34;5050532;28;20533;-61
2022/01/08 05:04:13;;;;;;;2.38;1.88;;;;;;;-4.85;62.76;99009.88;5051798;28;20130;-60
2022/01/08 05:06:39;;;;;;;2.83;2.10;;;;;;;-4.85;62.71;99022.00;5053261;28;20557;-58
2022/01/08 05:09:05;;;;;;;4.05;2.38;;;;;;;-4.91;63.25;99031.16;5062674;28;20048;-61
2022/01/08 05:11:31;;;;;;;3.65;1.98;;;;;;;-4.93;63.83;99027.09;5069313;28;20045;-60
2022/01/08 05:13:57;;;;;;;3.55;1.92;;;;;;;-4.84;63.34;99032.16;5071072;28;20170;-61
2022/01/08 05:16:25;;;;;;;2.42;1.77;;;;;;;-4.86;64.10;99035.88;5070885;28;20048;-58
2022/01/08 05:18:54;;;;;;;5.32;2.17;;;;;;;-4.82;63.54;99038.03;5064280;28;20045;-60
2022/01/08 05:21:30;;;;;;;4.05;2.05;;;;;;;-4.75;63.51;99037.44;5063993;28;20045;-60
2022/01/08 05:23:57;;;;;;;2.65;1.95;;;;;;;-4.77;63.74;99040.16;5051696;28;20128;-58
2022/01/08 05:26:25;;;;;;;2.58;2.00;;;;;;;-4.63;63.56;99047.38;5064849;28;20051;-59
2022/01/08 05:28:52;;;;;;;3.63;2.30;;;;;;;-4.52;63.72;99043.78;5055383;28;20044;-62
2022/01/08 05:31:20;;;;;;;4.13;2.00;;;;;;;-4.45;64.27;99054.34;5065754;28;20091;-61
2022/01/08 05:33:47;;;;;;;2.78;2.00;;;;;;;-4.40;64.38;99052.13;5075413;28;20047;-60
2022/01/08 05:36:14;;;;;;;4.10;1.92;;;;;;;-4.38;64.12;99058.78;5074562;28;20045;-60
2022/01/08 05:38:40;;;;;;;2.65;1.98;;;;;;;-4.30;63.68;99060.59;5057519;28;20048;-58
2022/01/08 05:41:06;;;;;;;3.15;2.00;;;;;;;-4.27;63.19;99059.47;5061293;28;20045;-61
2022/01/08 05:43:32;;;;;;;5.20;1.98;;;;;;;-4.35;63.44;99055.88;5073713;28;20040;-59
2022/01/08 05:45:57;;;;;;;3.25;2.05;;;;;;;-4.37;63.94;99073.31;5069253;28;20087;-61
2022/01/08 05:48:24;;;;;;;4.85;1.88;;;;;;;-4.51;63.95;99067.88;5055172;28;20517;-60
2022/01/08 05:50:50;;;;;;;3.40;2.35;;;;;;;-4.44;64.46;99081.81;5055976;28;20045;-59
2022/01/08 05:53:20;;;;;;;2.90;1.90;;;;;;;-4.44;64.94;99089.56;5073504;28;20043;-58
2022/01/08 05:55:46;;;;;;;5.95;2.20;;;;;;;-4.39;64.84;99097.72;5072628;28;20036;-61
2022/01/08 05:58:12;;;;;;;4.28;2.05;;;;;;;-4.29;64.45;99098.47;5074133;28;20040;-58
2022/01/08 06:00:39;;;;;;;5.13;3.60;;;;;;;-4.29;64.65;99103.66;5069722;28;20040;-59
2022/01/08 06:03:04;;;;;;;10.82;4.75;;;;;;;-4.28;64.65;99097.50;5069496;28;20107;-60
2022/01/08 06:05:30;;;;;;;9.70;3.80;;;;;;;-4.21;64.33;99105.47;5069867;28;20048;-60
2022/01/08 06:07:56;;;;;;;4.10;2.40;;;;;;;-4.26;64.67;99102.53;5074406;28;20033;-62
2022/01/08 06:10:22;;;;;;;3.28;2.22;;;;;;;-4.23;64.47;99113.41;5066309;28;20048;-62
2022/01/08 06:12:48;;;;;;;4.57;2.50;;;;;;;-4.21;64.62;99119.22;5065780;28;20047;-61
2022/01/08 06:15:14;;;;;;;3.42;2.40;;;;;;;-4.20;63.84;99123.44;5078848;28;20453;-62
2022/01/08 06:17:40;;;;;;;3.30;2.30;;;;;;;-4.15;63.88;99117.81;5079749;28;20055;-61
2022/01/08 06:20:07;;;;;;;3.83;2.42;;;;;;;-4.09;63.39;99127.56;5065646;28;20056;-62
2022/01/08 06:22:33;;;;;;;4.68;2.50;;;;;;;-4.13;63.32;99131.41;5072326;28;20572;-65
2022/01/08 06:24:59;;;;;;;4.47;2.22;;;;;;;-4.04;63.08;99146.06;5072165;28;20444;-63
2022/01/08 06:27:25;;;;;;;6.57;2.60;;;;;;;-4.01;63.57;99142.34;5073238;28;20037;-62
2022/01/08 06:29:51;;;;;;;3.22;2.10;;;;;;;-4.01;62.99;99150.13;5055516;28;20065;-60
2022/01/08 06:32:17;;;;;;;2.47;2.00;;;;;;;-3.95;63.33;99152.13;5054342;28;20040;-59
2022/01/08 06:34:43;;;;;;;3.92;2.10;;;;;;;-3.85;63.25;99152.84;5072301;28;20060;-59
2022/01/08 06:37:10;;;;;;;4.60;2.63;;;;;;;-3.76;63.82;99166.69;5071336;28;20464;-59
2022/01/08 06:39:36;;;;;;;5.97;2.28;;;;;;;-3.82;62.87;99164.66;5071350;28;20059;-61
2022/01/08 06:42:03;;;;;;;6.85;2.97;;;;;;;-3.82;63.86;99169.84;5073346;28;20433;-58
2022/01/08 06:44:29;;;;;;;5.15;2.45;;;;;;;-3.79;64.03;99169.56;5073360;28;20513;-60
2022/01/08 06:46:55;;;;;;;8.27;2.78;;;;;;;-3.76;63.70;99166.69;5072487;28;20075;-61
2022/01/08 06:49:20;;;;;;;4.50;2.78;;;;;;;-3.79;63.16;99174.75;5072788;28;20056;-63
2022/01/08 06:51:47;;;;;;;3.83;2.40;;;;;;;-3.87;63.66;99167.72;5072702;28;20044;-60
2022/01/08 06:54:12;;;;;;;3.95;2.38;;;;;;;-3.90;64.41;99170.63;5072545;28;20044;-59
2022/01/08 06:56:38;;;;;;;5.43;3.15;;;;;;;-3.96;64.32;99179.78;5072101;28;20043;-58
2022/01/08 06:59:04;;;;;;;6.15;3.70;;;;;;;-4.06;64.34;99170.47;5071780;28;20032;-61
2022/01/08 07:01:30;;;;;;;8.13;3.40;;;;;;;-4.29;64.92;99180.44;5052672;28;20036;-58
2022/01/08 07:03:56;;;;;;;6.03;2.90;;;;;;;-4.39;64.95;99194.25;5064227;28;20484;-59
2022/01/08 07:06:22;;;;;;;5.53;2.92;;;;;;;-4.58;64.79;99194.41;5070842;28;20086;-63
2022/01/08 07:08:49;;;;;;;4.63;2.63;;;;;;;-4.70;65.04;99192.97;5067953;28;20555;-63
2022/01/08 07:11:16;;;;;;;5.28;2.53;;;;;;;-4.64;65.56;99192.41;5058644;28;20087;-63
2022/01/08 07:13:42;;;;;;;5.97;3.47;;;;;;;-4.62;64.70;99198.22;5072398;28;20161;-59
2022/01/08 07:16:11;;;;;;;5.25;3.20;;;;;;;-4.57;64.98;99198.59;5070379;28;20033;-62
2022/01/08 07:18:37;;;;;;;5.63;2.88;;;;;;;-4.53;64.51;99194.75;5066868;28;20123;-62
2022/01/08 07:21:03;;;;;;;4.57;3.72;;;;;;;-4.40;64.21;99199.59;5090065;28;20135;-57
2022/01/08 07:23:29;;;;;;;3.90;2.47;;;;;;;-4.19;64.09;99194.94;5066069;28;20037;-59
2022/01/08 07:25:55;;;;;;;4.45;2.40;;;;;;;-4.07;63.16;99195.53;5051532;28;20102;-59
2022/01/08 07:28:21;;;;;;;4.80;2.58;;;;;;;-3.99;62.82;99207.75;5070820;28;20033;-60
2022/01/08 07:30:46;;;;;;;3.88;2.38;;;;;;;-4.00;62.66;99219.06;5068991;28;20045;-60
2022/01/08 07:33:12;;;;;;;2.63;2.10;;;;;;;-3.90;63.13;99223.22;5063590;28;20040;-66
2022/01/08 07:35:38;;;;;;;5.22;2.17;;;;;;;-3.79;62.66;99224.78;5056692;28;20110;-59
2022/01/08 07:38:04;;;;;;;3.65;2.42;;;;;;;-3.62;62.38;99222.28;5066394;28;20501;-61
2022/01/08 07:40:30;;;;;;;2.92;2.25;;;;;;;-3.42;61.89;99236.69;5067322;28;20486;-59
2022/01/08 07:42:56;;;;;;;3.88;2.05;;;;;;;-3.32;61.34;99234.84;5064129;28;20040;-59
2022/01/08 07:45:21;;;;;;;3.88;2.35;;;;;;;-3.21;60.99;99228.56;5071882;28;20444;-61
2022/01/08 07:47:48;;;;;;;4.25;2.67;;;;;;;-3.16;61.52;99230.72;5072207;28;20048;-60
2022/01/08 07:50:14;;;;;;;4.47;2.88;;;;;;;-3.20;60.51;99236.22;5062873;28;20083;-61
2022/01/08 07:52:40;;;;;;;5.25;2.63;;;;;;;-3.12;61.39;99237.22;5076487;28;20115;-60
2022/01/08 07:55:06;;;;;;;2.70;2.30;;;;;;;-3.10;61.25;99246.47;5071868;28;20041;-59
2022/01/08 07:57:32;;;;;;;3.45;2.17;;;;;;;-3.00;61.17;99247.19;5070351;28;20136;-57
2022/01/08 07:59:58;;;;;;;3.40;2.05;;;;;;;-3.03;60.41;99252.69;5052025;28;20139;-59
2022/01/08 08:02:24;;;;;;;6.28;2.60;;;;;;;-3.02;61.32;99256.09;5053473;28;20044;-58
2022/01/08 08:04:50;;;;;;;2.85;1.90;;;;;;;-3.04;60.73;99268.38;5071402;28;20048;-61
2022/01/08 08:07:29;;;;;;;2.85;1.90;;;;;;;-3.03;60.61;99272.59;5072093;28;20110;-63
2022/01/08 08:09:55;;;;;;;2.05;1.83;;;;;;;-2.88;61.06;99270.25;5060978;28;20041;-63
2022/01/08 08:12:22;;;;;;;3.97;2.00;;;;;;;-2.80;60.03;99267.72;5050465;28;20092;-62
2022/01/08 08:14:49;;;;;;;2.38;1.67;;;;;;;-2.99;60.46;99261.78;5069403;28;20582;-63
2022/01/08 08:17:15;;;;;;;5.25;4.60;;;;;;;-3.16;59.90;99249.69;5070527;28;20051;-62
2022/01/08 08:19:40;;;;;;;3.17;2.15;;;;;;;-3.14;60.95;99263.31;5068556;28;20127;-63
2022/01/08 08:22:06;;;;;;;4.47;2.00;;;;;;;-3.13;60.58;99270.13;5051975;28;20198;-62
2022/01/08 08:24:32;;;;;;;4.20;2.10;;;;;;;-3.13;60.71;99264.94;5045561;28;20044;-60
2022/01/08 08:26:58;;;;;;;3.70;2.10;;;;;;;-3.12;60.44;99260.56;5051551;28;20135;-60
2022/01/08 08:29:24;;;;;;;8.18;6.20;;;;;;;-2.93;60.34;99275.09;5062295;28;20067;-62
2022/01/08 08:31:49;;;;;;;3.83;2.53;;;;;;;-2.81;60.29;99279.88;5066117;28;20048;-62
2022/01/08 08:34:15;;;;;;;1.92;1.50;;;;;;;-2.67;59.00;99283.69;5070150;28;20064;-61
2022/01/08 08:36:41;;;;;;;3.05;1.83;;;;;;;-2.70;59.67;99281.41;5069466;28;20051;-59
2022/01/08 08:39:07;;;;;;;6.30;2.88;;;;;;;-2.73;60.10;99286.91;5071582;28;20059;-59
2022/01/08 08:41:33;;;;;;;3.97;2.30;;;;;;;-2.60;59.52;99289.88;5069936;28;20522;-60
2022/01/08 08:43:58;;;;;;;17.38;7.00;;;;;;;-2.56;59.75;99296.38;5053727;28;20045;-59
2022/01/08 08:46:25;;;;;;;3.60;2.75;;;;;;;-2.58;59.22;99298.31;5059477;28;20044;-58
2022/01/08 08:48:53;;;;;;;6.20;3.50;;;;;;;-2.55;59.18;99294.59;5057769;28;20040;-61
2022/01/08 08:51:18;;;;;;;18.70;7.97;;;;;;;-2.51;59.50;99285.53;5067919;28;20040;-63
2022/01/08 08:53:44;;;;;;;6.45;3.38;;;;;;;-2.45;59.33;99290.09;5070213;28;20493;-60
2022/01/08 08:56:10;;;;;;;9.40;4.78;;;;;;;-2.55;59.54;99292.81;5068890;28;20574;-62
2022/01/08 08:58:36;;;;;;;3.55;2.28;;;;;;;-2.61;60.12;99293.44;5071317;28;20394;-60
2022/01/08 09:01:02;;;;;;;4.28;2.38;;;;;;;-2.67;59.65;99294.06;5070393;28;20070;-59
2022/01/08 09:03:28;;;;;;;10.60;3.83;;;;;;;-2.43;60.09;99295.16;5071506;28;20068;-63
2022/01/08 09:05:53;;;;;;;5.50;2.50;;;;;;;-2.34;59.38;99292.41;5070930;28;20550;-63
2022/01/08 09:08:19;;;;;;;2.65;2.03;;;;;;;-2.16;59.43;99307.09;5040696;28;20351;-60
2022/01/08 09:10:45;;;;;;;3.80;2.58;;;;;;;-2.14;58.91;99298.16;5065360;28;20052;-62
2022/01/08 09:13:11;;;;;;;3.35;2.38;;;;;;;-2.07;58.79;99300.94;5070158;28;20036;-61
2022/01/08 09:15:41;;;;;;;4.50;2.60;;;;;;;-2.00;58.56;99307.16;5070375;28;20109;-60
2022/01/08 09:18:08;;;;;;;4.22;2.40;;;;;;;-1.89;58.50;99312.03;5051376;28;20075;-63
2022/01/08 09:20:34;;;;;;;3.85;2.60;;;;;;;-1.87;57.88;99307.50;5063979;28;20498;-60
2022/01/08 09:23:00;;;;;;;4.25;2.88;;;;;;;-1.88;57.91;99313.66;5071149;28;20462;-60
2022/01/08 09:25:26;;;;;;;6.10;3.25;;;;;;;-1.87;57.90;99315.28;5070747;28;20095;-60
2022/01/08 09:27:52;;;;;;;5.85;2.72;;;;;;;-1.81;57.49;99313.03;5070892;28;20043;-62
2022/01/08 09:30:18;;;;;;;3.17;2.30;;;;;;;-1.79;57.11;99316.25;5062595;28;20040;-59
2022/01/08 09:32:44;;;;;;;3.42;2.00;;;;;;;-1.68;57.44;99318.56;5051153;28;20056;-59
2022/01/08 09:35:12;;;;;;;5.03;2.90;;;;;;;-1.64;57.02;99325.88;5048066;28;20102;-62
2022/01/08 09:37:39;;;;;;;4.53;2.60;;;;;;;-1.62;56.45;99318.75;5049372;28;20129;-65
2022/01/08 09:40:11;;;;;;;3.75;2.45;;;;;;;-1.64;57.17;99317.28;5059961;28;20036;-65
2022/01/08 09:42:40;;;;;;;4.78;2.70;;;;;;;-1.74;57.53;99321.78;5062160;28;20106;-63
2022/01/08 09:45:07;;;;;;;3.38;1.98;;;;;;;-1.73;57.29;99319.06;5059013;28;20040;-64
2022/01/08 09:47:33;;;;;;;5.10;1.95;;;;;;;-1.70;57.18;99313.53;5069258;28;20036;-61
2022/01/08 09:49:59;;;;;;;3.03;1.70;;;;;;;-1.65;56.93;99316.47;5068840;28;20501;-62
2022/01/08 09:52:25;;;;;;;3.08;1.80;;;;;;;-1.64;56.38;99330.28;5047898;28;20048;-63
2022/01/08 09:54:51;;;;;;;4.80;1.98;;;;;;;-1.72;56.59;99319.88;5056217;28;20052;-66
2022/01/08 09:57:17;;;;;;;3.92;1.85;;;;;;;-1.76;56.51;99328.97;5069225;28;20504;-59
2022/01/08 09:59:43;;;;;;;2.13;1.65;;;;;;;-1.85;56.51;99334.13;5068936;28;20040;-59
2022/01/08 10:02:09;;;;;;;7.97;1.70;;;;;;;-2.00;56.71;99342.66;5069915;28;20072;-63
2022/01/08 10:04:36;;;;;;;3.28;1.73;;;;;;;-2.09;57.00;99344.44;5059054;28;20501;-62
2022/01/08 10:07:22;;;;;;;3.38;1.95;;;;;;;-2.18;56.69;99332.38;5064380;28;20196;-62
2022/01/08 10:10:13;;;;;;;1.98;1.50;;;;;;;-2.18;57.26;99342.78;5031495;28;20069;-63
2022/01/08 10:12:55;;;;;;;3.10;1.70;;;;;;;-2.19;57.53;99349.75;5062164;28;20053;-63
2022/01/08 10:18:22;;;;;;;4.43;2.15;;;;;;;-2.19;57.22;99349.75;5053102;28;20302;-60
2022/01/08 10:20:50;;;;;;;2.97;1.85;;;;;;;-2.08;57.29;99351.28;5054351;28;20041;-60
2022/01/08 10:23:21;;;;;;;3.13;2.03;;;;;;;-2.09;57.09;99344.44;5061532;28;20037;-61
2022/01/08 10:26:08;;;;;;;4.85;1.88;;;;;;;-2.18;57.62;99343.59;5066080;28;20462;-60
2022/01/08 10:28:50;;;;;;;3.13;1.85;;;;;;;-2.08;57.54;99359.06;5073977;28;20041;-62
2022/01/08 10:31:20;;;;;;;2.78;1.98;;;;;;;-2.01;57.61;99359.25;5071378;28;20045;-62
2022/01/08 10:33:57;;;;;;;3.78;1.98;;;;;;;-2.11;57.93;99354.19;5065222;28;20049;-62
2022/01/08 10:36:43;;;;;;;3.78;2.13;;;;;;;-2.17;58.29;99365.19;5069651;28;20037;-61
2022/01/08 10:39:27;;;;;;;4.38;2.22;;;;;;;-2.11;58.71;99360.19;5015453;28;20128;-59
2022/01/08 10:42:13;;;;;;;2.97;2.00;;;;;;;-2.20;58.81;99355.94;5070475;28;20035;-61
2022/01/08 10:44:41;;;;;;;3.13;2.08;;;;;;;-2.29;59.11;99368.06;5027913;28;20090;-60
2022/01/08 10:47:12;;;;;;;4.28;2.50;;;;;;;-2.27;60.19;99362.69;5060694;28;20051;-60
2022/01/08 10:49:39;;;;;;;5.53;2.58;;;;;;;-2.35;60.02;99370.47;5048912;28;20036;-59
2022/01/08 10:52:06;;;;;;;4.35;2.25;;;;;;;-2.30;59.93;99373.41;5065803;28;20122;-59
2022/01/08 10:54:35;;;;;;;3.95;2.10;;;;;;;-2.54;59.61;99361.91;5072310;28;20522;-59
2022/01/08 10:57:03;;;;;;;3.28;2.00;;;;;;;-2.34;59.77;99362.50;5058491;28;20052;-60
2022/01/08 10:59:30;;;;;;;3.63;2.17;;;;;;;-2.27;59.77;99354.91;5067377;28;20036;-59
2022/01/08 11:02:02;;;;;;;3.20;2.08;;;;;;;-2.18;59.62;99351.38;5059747;28;20033;-59
2022/01/08 11:04:47;;;;;;;5.50;2.80;;;;;;;-2.27;59.65;99357.50;5056361;28;20047;-59
2022/01/08 11:07:15;;;;;;;6.10;2.45;;;;;;;-2.19;59.03;99356.75;5075868;28;20098;-59
2022/01/08 11:09:43;;;;;;;7.15;3.45;;;;;;;-2.07;59.59;99363.28;5069834;28;20045;-60
2022/01/08 11:12:13;;;;;;;4.55;2.55;;;;;;;-2.02;59.19;99365.41;5063566;28;20737;-63
2022/01/08 11:17:13;;;;;;;6.18;2.65;;;;;;;-2.14;59.05;99360.50;5061832;28;20070;-61
2022/01/08 11:19:43;;;;;;;5.10;2.80;;;;;;;-2.04;59.31;99372.53;5047729;28;20516;-61
2022/01/08 11:22:12;;;;;;;3.70;2.40;;;;;;;-2.01;59.24;99361.84;5062008;28;20082;-60
2022/01/08 11:24:44;;;;;;;4.57;2.80;;;;;;;-2.07;58.90;99366.69;5046155;28;20905;-61
2022/01/08 11:27:11;;;;;;;6.47;3.03;;;;;;;-2.02;59.32;99370.63;5049837;28;20040;-62
2022/01/08 11:29:38;;;;;;;9.75;3.30;;;;;;;-2.18;60.04;99366.97;5047012;28;20045;-61
2022/01/08 11:32:05;;;;;;;5.07;3.42;;;;;;;-2.18;59.78;99368.75;5054100;28;20059;-60
2022/01/08 11:34:31;;;;;;;7.53;3.40;;;;;;;-2.13;59.68;99372.50;5058956;28;20136;-61
2022/01/08 11:36:58;;;;;;;5.50;2.97;;;;;;;-2.03;60.01;99384.56;5045769;28;20186;-62
2022/01/08 11:39:28;;;;;;;4.50;3.00;;;;;;;-2.10;60.25;99385.19;5067161;28;20052;-64
2022/01/08 11:41:56;;;;;;;27.90;10.77;;;;;;;-2.10;59.89;99398.16;5065557;28;20040;-64
2022/01/08 11:44:23;;;;;;;4.85;4.15;;;;;;;-2.16;59.65;99400.56;5047682;28;20283;-62
2022/01/08 11:46:50;;;;;;;7.00;3.35;;;;;;;-2.01;60.10;99408.59;5045459;28;20056;-62
2022/01/08 11:49:16;;;;;;;6.95;3.40;;;;;;;-2.02;59.90;99409.56;5049169;28;20120;-62
2022/01/08 11:51:42;;;;;;;5.75;3.47;;;;;;;-2.08;60.10;99406.63;5063999;28;20521;-61
2022/01/08 11:54:08;;;;;;;5.65;3.40;;;;;;;-2.00;60.30;99399.81;5049446;28;20049;-63
2022/01/08 11:56:39;;;;;;;6.13;3.20;;;;;;;-2.02;60.16;99402.59;5046923;28;20493;-63
2022/01/08 11:59:11;;;;;;;7.50;3.28;;;;;;;-1.93;60.70;99406.84;5023753;28;20039;-62